Horton, AL (35980)

3:10 AM CST on February 08, 2016 (GMT -0600)
Albertville | | Change Station
CLOSE
Current Station
Airport
Location: Albertville,
Elevation: 1033 ft
Nearby Weather Stations

Elev 1033 ft 34.23 °N, 86.26 °W | Updated 15 minutes ago

Partly Cloudy
Partly Cloudy
39 °F
Feels Like 35 °F
N
6
Wind Variable Wind from SW

Today
High -- | Low -- °F
--% Chance of Precip.
Yesterday
High -- | Low -- °F
Precip. -- in
Pressure 29.86 in
Visibility 10.0 miles
Clouds Mostly Cloudy 12000 ft
Windchill 35 °F
Dew Point 32 °F
Humidity 75%
Rainfall 0.00 in
Snow Depth Not available.
6:37 AM 5:21 PM
Waning Crescent, 0% visible
METAR K8A0 080855Z AUTO 23005KT 10SM BKN120 04/00 A2986 RMK AO2
Pressure 29.86 in
Visibility 10.0 miles
Clouds Mostly Cloudy 12000 ft
Windchill 35 °F
Dew Point 32 °F
Humidity 75%
Rainfall 0.00 in
Snow Depth Not available.
6:37 AM 5:21 PM
Waning Crescent, 0% visible
METAR K8A0 080855Z AUTO 23005KT 10SM BKN120 04/00 A2986 RMK AO2

10-Day Weather Forecast

Almanac

Astronomy

Feb. 08, 2016 Rise Set
Actual Time
Civil Twilight
Nautical Twilight
Astronomical Twilight
Moon
Length of Visible Light
Length of Day
Tomorrow will be .
, % of the Moon is Illuminated

Today's Extremes

State Highs State Lows

Community

WunderPhotos

Upload Photos

1,891,412 photos uploaded!

WunderBlog® & News

Nearby

Air Quality

  Air Quality AQ Index Pollutant
Not available.

Snow Depth

Station Depth Elevation

Earthquake Activity

City Distance Mag. Time & Date
Minimum magnitude displayed is 2.5.

Coastal Water Temperatures

Place Temperature

Stations

Nearby Weather Stations

Station Location Temp. Windchill Dew Point Humidity Wind Precip. Elev Updated Type
                   

Watches & Warnings

There are currently no watches in effect.